Time;durP1;ratioP1;P1;durP2;ratioP2;P2;SDS_P1;SDS_P2;PMS_P1;PMS_P2;Temp;Humidity;BMP_temperature;BMP_pressure;BME280_temperature;BME280_humidity;BME280_pressure;Samples;Min_cycle;Max_cycle;Signal;HPM_P1;HPM_P2
2023/05/26 00:00:41;;;;;;;;;;;17.10;99.90;;;;;;5113632;28;20506;-65
2023/05/26 00:03:08;;;;;;;;;;;17.00;99.90;;;;;;5113055;28;19936;-66
2023/05/26 00:05:39;;;;;;;;;;;17.00;99.90;;;;;;5113605;28;19911;-65
2023/05/26 00:08:09;;;;;;;;;;;16.90;99.90;;;;;;5110488;28;20006;-66
2023/05/26 00:10:36;;;;;;;;;;;17.00;99.90;;;;;;5106387;28;19911;-66
2023/05/26 00:13:03;;;;;;;;;;;16.90;99.90;;;;;;5113363;28;20299;-66
2023/05/26 00:15:30;;;;;;;;;;;16.90;99.90;;;;;;5102340;28;20352;-66
2023/05/26 00:18:01;;;;;;;;;;;16.90;99.90;;;;;;5108500;28;19912;-65
2023/05/26 00:20:28;;;;;;;;;;;16.90;99.90;;;;;;5074294;28;19908;-66
2023/05/26 00:22:54;;;;;;;;;;;16.90;99.90;;;;;;5109290;28;19920;-66
2023/05/26 00:25:24;;;;;;;;;;;17.00;99.90;;;;;;5112838;28;19964;-66
2023/05/26 00:27:51;;;;;;;;;;;16.90;99.90;;;;;;5111747;28;20280;-65
2023/05/26 00:30:17;;;;;;;;;;;16.90;99.90;;;;;;5111182;28;19915;-65
2023/05/26 00:32:44;;;;;;;;;;;16.90;99.90;;;;;;5111357;28;19915;-65
2023/05/26 00:35:11;;;;;;;;;;;16.90;99.90;;;;;;5108023;28;19947;-65
2023/05/26 00:37:37;;;;;;;;;;;16.80;99.90;;;;;;5108139;28;19987;-65
2023/05/26 00:40:04;;;;;;;;;;;16.80;99.90;;;;;;5111774;28;19911;-66
2023/05/26 00:42:31;;;;;;;;;;;16.90;99.90;;;;;;5112556;28;19919;-65
2023/05/26 00:44:57;;;;;;;;;;;16.80;99.90;;;;;;5111932;28;19914;-66
2023/05/26 00:47:24;;;;;;;;;;;16.90;99.90;;;;;;5108808;28;19918;-65
2023/05/26 00:49:54;;;;;;;;;;;16.90;99.90;;;;;;5112247;28;20298;-65
2023/05/26 00:52:21;;;;;;;;;;;16.80;99.90;;;;;;5113696;28;20423;-65
2023/05/26 00:54:48;;;;;;;;;;;16.70;99.90;;;;;;5109380;28;19937;-66
2023/05/26 00:57:15;;;;;;;;;;;16.70;99.90;;;;;;5112373;28;20378;-66
2023/05/26 00:59:42;;;;;;;;;;;16.70;99.90;;;;;;5113842;28;20361;-66
2023/05/26 01:02:08;;;;;;;;;;;16.60;99.90;;;;;;5111655;28;19911;-66
2023/05/26 01:04:35;;;;;;;;;;;16.70;99.90;;;;;;5109285;28;20002;-65
2023/05/26 01:07:02;;;;;;;;;;;16.60;99.90;;;;;;5111262;28;19915;-66
2023/05/26 01:09:28;;;;;;;;;;;16.50;99.90;;;;;;5110534;28;19911;-65
2023/05/26 01:12:01;;;;;;;;;;;16.50;99.90;;;;;;5110654;28;20002;-64
2023/05/26 01:14:28;;;;;;;;;;;16.60;99.90;;;;;;5110691;28;20280;-65
2023/05/26 01:17:03;;;;;;;;;;;16.70;99.90;;;;;;5111728;28;20388;-65
2023/05/26 01:19:34;;;;;;;;;;;16.70;99.90;;;;;;5108604;28;19908;-66
2023/05/26 01:22:14;;;;;;;;;;;16.80;99.90;;;;;;5113003;28;20344;-64
2023/05/26 01:24:45;;;;;;;;;;;16.70;99.90;;;;;;5113238;28;19960;-64
2023/05/26 01:27:12;;;;;;;;;;;16.70;99.90;;;;;;5112870;28;19951;-64
2023/05/26 01:29:39;;;;;;;;;;;16.80;99.90;;;;;;5107629;28;19965;-64
2023/05/26 01:32:07;;;;;;;;;;;16.80;99.90;;;;;;5112865;28;19907;-65
2023/05/26 01:34:34;;;;;;;;;;;16.80;99.90;;;;;;5112624;28;19912;-65
2023/05/26 01:37:01;;;;;;;;;;;16.90;99.90;;;;;;5111884;28;19908;-66
2023/05/26 01:39:27;;;;;;;;;;;17.10;99.90;;;;;;5112149;28;19915;-65
2023/05/26 01:41:57;;;;;;;;;;;17.10;99.90;;;;;;5110537;28;19920;-64
2023/05/26 01:44:28;;;;;;;;;;;17.40;99.90;;;;;;5104101;28;19912;-65
2023/05/26 01:46:54;;;;;;;;;;;17.50;99.90;;;;;;5112639;28;20408;-65
2023/05/26 01:49:22;;;;;;;;;;;17.60;99.90;;;;;;5108847;28;19957;-64
2023/05/26 01:51:55;;;;;;;;;;;17.70;99.90;;;;;;5111671;28;19912;-65
2023/05/26 01:54:23;;;;;;;;;;;17.70;99.90;;;;;;5111840;28;20429;-65
2023/05/26 01:56:49;;;;;;;;;;;17.70;99.90;;;;;;5110622;28;20014;-65
2023/05/26 01:59:17;;;;;;;;;;;17.70;99.90;;;;;;5111924;28;19912;-65
2023/05/26 02:01:43;;;;;;;;;;;17.90;99.90;;;;;;5110564;28;19927;-63
2023/05/26 02:04:11;;;;;;;;;;;17.80;99.90;;;;;;5111068;28;19908;-66
2023/05/26 02:06:38;;;;;;;;;;;18.00;99.90;;;;;;5108515;28;19907;-66
2023/05/26 02:09:05;;;;;;;;;;;18.00;99.90;;;;;;5102633;28;20449;-66
2023/05/26 02:11:32;;;;;;;;;;;18.10;99.90;;;;;;5112340;28;20357;-66
2023/05/26 02:13:59;;;;;;;;;;;18.10;99.90;;;;;;5111985;28;19968;-66
2023/05/26 02:16:26;;;;;;;;;;;18.20;99.90;;;;;;5107962;28;19961;-66
2023/05/26 02:18:52;;;;;;;;;;;18.00;99.90;;;;;;5112627;28;19914;-66
2023/05/26 02:21:19;;;;;;;;;;;17.80;99.90;;;;;;5092308;28;20364;-65
2023/05/26 02:23:46;;;;;;;;;;;17.70;99.90;;;;;;5101003;28;19918;-65
2023/05/26 02:26:13;;;;;;;;;;;17.50;99.90;;;;;;5112201;28;20348;-65
2023/05/26 02:28:40;;;;;;;;;;;17.40;99.90;;;;;;5098572;28;19924;-65
2023/05/26 02:31:07;;;;;;;;;;;17.30;99.90;;;;;;5110350;28;19919;-65
2023/05/26 02:33:34;;;;;;;;;;;17.20;99.90;;;;;;5114543;28;19939;-67
2023/05/26 02:36:01;;;;;;;;;;;17.10;99.90;;;;;;5113562;28;19958;-64
2023/05/26 02:38:27;;;;;;;;;;;17.00;99.90;;;;;;5112957;28;19908;-67
2023/05/26 02:40:54;;;;;;;;;;;16.90;99.90;;;;;;5096278;28;20396;-66
2023/05/26 02:43:23;;;;;;;;;;;16.70;99.90;;;;;;5111686;28;19966;-64
2023/05/26 02:45:50;;;;;;;;;;;16.50;99.90;;;;;;5111943;28;19907;-64
2023/05/26 02:48:17;;;;;;;;;;;16.20;99.90;;;;;;5111543;28;19970;-65
2023/05/26 02:50:44;;;;;;;;;;;16.20;99.90;;;;;;5097438;28;20045;-65
2023/05/26 02:53:11;;;;;;;;;;;16.20;99.90;;;;;;5091449;28;20318;-65
2023/05/26 02:55:38;;;;;;;;;;;16.20;99.90;;;;;;5099887;28;20287;-66
2023/05/26 02:58:05;;;;;;;;;;;16.20;99.90;;;;;;5114059;28;19912;-65
2023/05/26 03:00:32;;;;;;;;;;;16.20;99.90;;;;;;5106309;28;20537;-65
2023/05/26 03:03:00;;;;;;;;;;;16.10;99.90;;;;;;5111238;28;20372;-66
2023/05/26 03:05:26;;;;;;;;;;;16.00;99.90;;;;;;5111213;28;19980;-66
2023/05/26 03:07:53;;;;;;;;;;;15.90;99.90;;;;;;5112647;28;19920;-65
2023/05/26 03:10:20;;;;;;;;;;;15.80;99.90;;;;;;5112354;28;19908;-66
2023/05/26 03:12:46;;;;;;;;;;;15.70;99.90;;;;;;5109030;28;20572;-65
2023/05/26 03:15:13;;;;;;;;;;;15.80;99.90;;;;;;5115053;28;20410;-66
2023/05/26 03:17:40;;;;;;;;;;;16.00;99.90;;;;;;5115475;28;19908;-67
2023/05/26 03:20:06;;;;;;;;;;;16.20;99.90;;;;;;5105205;28;19908;-66
2023/05/26 03:22:36;;;;;;;;;;;16.30;99.90;;;;;;5094491;28;19918;-65
2023/05/26 03:25:03;;;;;;;;;;;16.60;99.90;;;;;;5094511;28;19908;-65
2023/05/26 03:27:30;;;;;;;;;;;16.90;99.90;;;;;;5094763;28;19922;-65
2023/05/26 03:29:57;;;;;;;;;;;17.00;99.80;;;;;;5100710;28;19912;-66
2023/05/26 03:32:23;;;;;;;;;;;18.00;99.10;;;;;;5094873;28;19907;-65
2023/05/26 03:34:50;;;;;;;;;;;19.50;96.40;;;;;;5113208;28;19908;-65
2023/05/26 03:37:17;;;;;;;;;;;20.70;94.10;;;;;;5112794;28;19965;-64
2023/05/26 03:39:43;;;;;;;;;;;21.80;91.60;;;;;;5109192;28;20372;-66
2023/05/26 03:42:10;;;;;;;;;;;22.00;90.10;;;;;;5108171;28;20464;-65
2023/05/26 03:44:37;;;;;;;;;;;21.60;90.20;;;;;;5095417;28;19933;-65
2023/05/26 03:47:03;;;;;;;;;;;20.90;90.90;;;;;;5096037;28;20340;-66
2023/05/26 03:49:30;;;;;;;;;;;21.10;90.30;;;;;;5112765;28;20052;-66
2023/05/26 03:51:57;;;;;;;;;;;21.10;90.20;;;;;;5110312;28;19923;-67
2023/05/26 03:54:23;;;;;;;;;;;20.80;90.20;;;;;;5114520;28;19960;-67
2023/05/26 03:56:50;;;;;;;;;;;20.00;90.90;;;;;;5114889;28;19908;-65
2023/05/26 03:59:17;;;;;;;;;;;19.30;91.60;;;;;;5114401;28;19919;-66
2023/05/26 04:01:43;;;;;;;;;;;18.70;92.20;;;;;;5096202;28;19912;-66
2023/05/26 04:04:10;;;;;;;;;;;18.50;92.20;;;;;;5113988;28;20530;-66
2023/05/26 04:06:37;;;;;;;;;;;18.50;92.30;;;;;;5114619;28;20317;-66
2023/05/26 04:09:04;;;;;;;;;;;18.30;92.10;;;;;;5113200;28;19916;-65
2023/05/26 04:11:31;;;;;;;;;;;18.30;92.00;;;;;;5108274;28;20377;-66
2023/05/26 04:13:58;;;;;;;;;;;18.10;91.40;;;;;;5097562;28;19912;-64
2023/05/26 04:16:25;;;;;;;;;;;18.20;91.30;;;;;;5113894;28;19918;-66
2023/05/26 04:18:51;;;;;;;;;;;18.20;91.20;;;;;;5112100;28;19911;-65
2023/05/26 04:21:18;;;;;;;;;;;18.00;91.20;;;;;;5106582;28;20256;-65
2023/05/26 04:23:51;;;;;;;;;;;17.90;91.40;;;;;;5113115;28;19993;-65
2023/05/26 04:26:18;;;;;;;;;;;18.00;91.40;;;;;;5113196;28;19912;-64
2023/05/26 04:28:45;;;;;;;;;;;18.00;91.40;;;;;;5113751;28;19926;-66
2023/05/26 04:31:16;;;;;;;;;;;18.00;91.30;;;;;;5113035;28;20409;-67
2023/05/26 04:33:45;;;;;;;;;;;18.00;91.50;;;;;;5099093;28;19912;-66
2023/05/26 04:36:12;;;;;;;;;;;17.90;91.60;;;;;;5104404;28;19939;-66
2023/05/26 04:38:45;;;;;;;;;;;17.50;91.80;;;;;;5113934;28;19915;-66
2023/05/26 04:41:12;;;;;;;;;;;17.20;92.20;;;;;;5102385;28;19920;-67
2023/05/26 04:43:40;;;;;;;;;;;17.00;92.60;;;;;;5105703;28;20312;-67
2023/05/26 04:46:08;;;;;;;;;;;16.90;93.00;;;;;;5112460;28;20279;-66
2023/05/26 04:48:36;;;;;;;;;;;17.00;93.60;;;;;;5086987;28;19928;-67
2023/05/26 04:51:03;;;;;;;;;;;16.90;92.90;;;;;;5101289;28;19935;-63
2023/05/26 04:53:30;;;;;;;;;;;16.90;93.20;;;;;;5111752;28;19916;-67
2023/05/26 04:55:58;;;;;;;;;;;16.80;93.60;;;;;;5112829;28;19915;-68
2023/05/26 04:58:25;;;;;;;;;;;16.90;93.30;;;;;;5113361;28;19908;-66
2023/05/26 05:00:52;;;;;;;;;;;16.80;93.20;;;;;;5097385;28;19954;-65
2023/05/26 05:03:18;;;;;;;;;;;16.70;93.50;;;;;;5083906;28;20030;-64
2023/05/26 05:05:45;;;;;;;;;;;16.70;93.70;;;;;;5113004;28;20318;-65
2023/05/26 05:08:12;;;;;;;;;;;16.60;94.00;;;;;;5110535;28;20364;-66
2023/05/26 05:10:39;;;;;;;;;;;16.70;93.90;;;;;;5103924;28;19907;-64
2023/05/26 05:13:05;;;;;;;;;;;16.80;93.70;;;;;;5112044;28;20010;-64
2023/05/26 05:15:32;;;;;;;;;;;16.90;93.60;;;;;;5093396;28;20370;-64
2023/05/26 05:17:59;;;;;;;;;;;17.10;93.50;;;;;;5101328;28;19916;-68
2023/05/26 05:20:26;;;;;;;;;;;17.10;93.30;;;;;;5105124;28;19923;-65
2023/05/26 05:22:53;;;;;;;;;;;17.10;93.40;;;;;;5104684;28;19912;-66
2023/05/26 05:25:19;;;;;;;;;;;17.00;93.40;;;;;;5096466;28;19916;-67
2023/05/26 05:27:46;;;;;;;;;;;17.00;93.30;;;;;;5091694;28;20007;-66
2023/05/26 05:30:14;;;;;;;;;;;17.00;93.60;;;;;;5091711;28;19997;-67
2023/05/26 05:32:40;;;;;;;;;;;17.00;93.60;;;;;;5095054;28;19911;-67
2023/05/26 05:35:08;;;;;;;;;;;17.00;93.90;;;;;;5096840;28;19955;-65
2023/05/26 05:37:34;;;;;;;;;;;16.90;93.70;;;;;;5092445;28;19912;-66
2023/05/26 05:40:01;;;;;;;;;;;16.70;93.80;;;;;;5103199;28;20314;-67
2023/05/26 05:42:28;;;;;;;;;;;16.70;94.40;;;;;;5095502;28;19920;-68
2023/05/26 05:44:54;;;;;;;;;;;16.70;94.00;;;;;;5112359;28;19915;-66
2023/05/26 05:47:21;;;;;;;;;;;16.60;94.00;;;;;;5107651;28;20409;-64
2023/05/26 05:49:48;;;;;;;;;;;16.50;94.20;;;;;;5098653;28;19968;-66
2023/05/26 05:52:14;;;;;;;;;;;16.50;94.10;;;;;;5091209;28;20284;-66
2023/05/26 05:54:41;;;;;;;;;;;16.40;94.50;;;;;;5087384;28;19915;-64
2023/05/26 05:57:10;;;;;;;;;;;16.20;94.60;;;;;;5114618;27;19956;-66
2023/05/26 05:59:37;;;;;;;;;;;16.10;94.70;;;;;;5108215;27;20005;-66
2023/05/26 06:02:04;;;;;;;;;;;16.10;94.80;;;;;;5075583;28;20346;-66
2023/05/26 06:04:30;;;;;;;;;;;15.90;95.40;;;;;;5092206;28;19915;-65
2023/05/26 06:06:57;;;;;;;;;;;15.80;95.60;;;;;;5095367;28;20361;-65
2023/05/26 06:09:23;;;;;;;;;;;15.70;95.50;;;;;;5107996;28;20373;-66
2023/05/26 06:11:50;;;;;;;;;;;15.60;95.60;;;;;;5091369;28;19916;-66
2023/05/26 06:14:17;;;;;;;;;;;15.50;95.60;;;;;;5091503;28;20626;-64
2023/05/26 06:16:43;;;;;;;;;;;15.40;95.70;;;;;;5094258;28;19908;-65
2023/05/26 06:19:10;;;;;;;;;;;15.40;96.40;;;;;;5090942;28;20534;-66
2023/05/26 06:21:36;;;;;;;;;;;15.40;96.20;;;;;;5091262;28;20372;-65
2023/05/26 06:24:03;;;;;;;;;;;15.30;95.80;;;;;;5091387;28;19915;-66
2023/05/26 06:26:30;;;;;;;;;;;15.20;95.80;;;;;;5093111;28;19912;-66
2023/05/26 06:28:56;;;;;;;;;;;15.20;96.10;;;;;;5111386;28;19920;-64
2023/05/26 06:31:25;;;;;;;;;;;15.20;96.00;;;;;;5110072;28;20400;-65
2023/05/26 06:33:54;;;;;;;;;;;15.20;95.90;;;;;;5110172;28;19912;-64
2023/05/26 06:36:21;;;;;;;;;;;15.10;96.10;;;;;;5111325;28;19919;-64
2023/05/26 06:38:48;;;;;;;;;;;15.10;95.80;;;;;;5108382;28;19991;-66
2023/05/26 06:41:15;;;;;;;;;;;15.10;95.70;;;;;;5096799;28;19926;-67
2023/05/26 06:43:41;;;;;;;;;;;15.10;95.70;;;;;;5113216;28;20044;-65
2023/05/26 06:46:08;;;;;;;;;;;14.90;95.90;;;;;;5099575;28;20345;-65
2023/05/26 06:48:35;;;;;;;;;;;14.90;95.80;;;;;;5102488;28;20272;-64
2023/05/26 06:51:01;;;;;;;;;;;14.90;95.80;;;;;;5089534;28;20384;-65
2023/05/26 06:53:28;;;;;;;;;;;14.90;96.00;;;;;;5113357;28;19932;-65
2023/05/26 06:55:55;;;;;;;;;;;14.90;96.30;;;;;;5114809;28;19952;-66
2023/05/26 06:58:21;;;;;;;;;;;14.90;96.00;;;;;;5100731;28;20342;-65
2023/05/26 07:00:58;;;;;;;;;;;15.00;95.80;;;;;;5111399;28;20276;-66
2023/05/26 07:03:25;;;;;;;;;;;14.90;95.50;;;;;;5114077;28;19912;-67
2023/05/26 07:05:52;;;;;;;;;;;14.80;95.60;;;;;;5115022;28;19908;-65
2023/05/26 07:08:19;;;;;;;;;;;14.70;95.50;;;;;;5114626;28;19916;-66
2023/05/26 07:10:45;;;;;;;;;;;14.70;95.80;;;;;;5114907;28;19918;-66
2023/05/26 07:13:13;;;;;;;;;;;14.60;95.90;;;;;;5114088;28;20014;-64
2023/05/26 07:15:40;;;;;;;;;;;14.60;96.20;;;;;;5114164;28;19912;-65
2023/05/26 07:18:06;;;;;;;;;;;14.50;96.20;;;;;;5096784;28;19935;-66
2023/05/26 07:20:33;;;;;;;;;;;14.50;95.90;;;;;;5114592;28;20422;-67
2023/05/26 07:23:00;;;;;;;;;;;14.40;96.90;;;;;;5095951;28;20363;-65
2023/05/26 07:25:26;;;;;;;;;;;14.40;96.20;;;;;;5094443;28;20360;-66
2023/05/26 07:27:53;;;;;;;;;;;14.30;96.30;;;;;;5095351;28;19919;-65
2023/05/26 07:30:20;;;;;;;;;;;14.20;96.20;;;;;;5093961;28;19965;-66
2023/05/26 07:32:46;;;;;;;;;;;14.20;96.30;;;;;;5101572;28;20253;-65
2023/05/26 07:35:13;;;;;;;;;;;14.10;96.30;;;;;;5113441;28;19916;-65
2023/05/26 07:37:40;;;;;;;;;;;14.10;96.80;;;;;;5114129;28;19947;-63
2023/05/26 07:40:07;;;;;;;;;;;14.10;97.10;;;;;;5104402;28;19999;-65
2023/05/26 07:42:33;;;;;;;;;;;14.00;96.50;;;;;;5075868;28;19920;-65
2023/05/26 07:45:01;;;;;;;;;;;14.00;96.90;;;;;;5093687;28;19912;-66
2023/05/26 07:47:31;;;;;;;;;;;14.00;96.70;;;;;;5075457;28;19923;-67
2023/05/26 07:49:58;;;;;;;;;;;13.90;97.20;;;;;;5101142;28;19908;-67
2023/05/26 07:52:25;;;;;;;;;;;13.90;97.00;;;;;;5099576;28;19912;-64
2023/05/26 07:54:52;;;;;;;;;;;13.80;96.70;;;;;;5092985;28;19960;-65
2023/05/26 07:57:19;;;;;;;;;;;13.80;97.00;;;;;;5098369;28;19918;-67
2023/05/26 07:59:45;;;;;;;;;;;13.70;97.20;;;;;;5094058;28;19916;-66
2023/05/26 08:02:12;;;;;;;;;;;13.70;97.20;;;;;;5109747;28;19912;-70
2023/05/26 08:04:39;;;;;;;;;;;13.70;97.10;;;;;;5114372;28;19907;-67
2023/05/26 08:07:06;;;;;;;;;;;13.60;96.80;;;;;;5096075;28;19912;-68
2023/05/26 08:09:32;;;;;;;;;;;13.50;96.70;;;;;;5106367;28;20004;-65
2023/05/26 08:11:59;;;;;;;;;;;13.50;96.70;;;;;;5108948;28;19947;-67
2023/05/26 08:14:26;;;;;;;;;;;13.40;96.70;;;;;;5113969;28;20332;-68
2023/05/26 08:16:53;;;;;;;;;;;13.40;96.80;;;;;;5114225;28;19912;-67
2023/05/26 08:19:20;;;;;;;;;;;13.40;96.70;;;;;;5113698;28;19942;-67
2023/05/26 08:21:46;;;;;;;;;;;13.30;96.80;;;;;;5093583;28;19912;-67
2023/05/26 08:24:13;;;;;;;;;;;13.30;96.70;;;;;;5092429;28;20562;-69
2023/05/26 08:26:40;;;;;;;;;;;13.30;96.70;;;;;;5094117;28;19908;-68
2023/05/26 08:29:08;;;;;;;;;;;13.20;96.80;;;;;;5093753;28;19916;-68
2023/05/26 08:31:35;;;;;;;;;;;13.20;96.70;;;;;;5093776;28;19912;-65
2023/05/26 08:34:02;;;;;;;;;;;13.10;96.70;;;;;;5093556;28;20011;-66
2023/05/26 08:36:28;;;;;;;;;;;13.10;96.60;;;;;;5093893;28;19915;-68
2023/05/26 08:38:55;;;;;;;;;;;13.10;96.80;;;;;;5093793;28;19916;-68
2023/05/26 08:41:22;;;;;;;;;;;13.10;96.60;;;;;;5072069;28;20116;-65
2023/05/26 08:43:55;;;;;;;;;;;13.00;96.70;;;;;;5085776;28;19931;-68
2023/05/26 08:46:22;;;;;;;;;;;13.00;96.80;;;;;;5073030;28;20254;-68
2023/05/26 08:48:50;;;;;;;;;;;13.00;96.70;;;;;;5073039;28;19966;-67
2023/05/26 08:51:16;;;;;;;;;;;13.00;96.80;;;;;;5076055;28;19916;-68
2023/05/26 08:53:44;;;;;;;;;;;12.90;96.70;;;;;;5093218;28;20034;-68
2023/05/26 08:56:11;;;;;;;;;;;12.90;96.90;;;;;;5093233;28;19908;-68
2023/05/26 08:58:39;;;;;;;;;;;12.80;97.10;;;;;;5092822;28;19947;-69
2023/05/26 09:01:05;;;;;;;;;;;12.80;96.90;;;;;;5092314;28;19961;-68
2023/05/26 09:03:32;;;;;;;;;;;12.80;97.00;;;;;;5092296;28;19908;-68
2023/05/26 09:05:58;;;;;;;;;;;12.70;96.90;;;;;;5092212;28;19912;-68
2023/05/26 09:08:25;;;;;;;;;;;12.70;97.20;;;;;;5092270;28;20396;-68
2023/05/26 09:10:52;;;;;;;;;;;12.70;97.10;;;;;;5091871;28;19953;-68
2023/05/26 09:13:20;;;;;;;;;;;12.70;96.90;;;;;;5071807;28;19949;-68
2023/05/26 09:15:51;;;;;;;;;;;12.70;96.90;;;;;;5072112;28;19916;-68
2023/05/26 09:18:18;;;;;;;;;;;12.70;96.90;;;;;;5072256;28;19956;-67
2023/05/26 09:20:49;;;;;;;;;;;12.60;97.10;;;;;;5072380;28;19913;-67
2023/05/26 09:23:16;;;;;;;;;;;12.60;96.90;;;;;;5092368;28;20319;-67
2023/05/26 09:25:44;;;;;;;;;;;12.60;97.10;;;;;;5092177;28;20280;-67
2023/05/26 09:28:14;;;;;;;;;;;12.60;96.90;;;;;;5092470;28;19916;-65
2023/05/26 09:30:42;;;;;;;;;;;12.50;96.90;;;;;;5090906;28;19920;-65
2023/05/26 09:33:11;;;;;;;;;;;12.50;96.70;;;;;;5077199;28;19938;-67
2023/05/26 09:35:41;;;;;;;;;;;12.40;96.90;;;;;;5073162;28;19917;-67
2023/05/26 09:38:11;;;;;;;;;;;12.50;96.80;;;;;;5071249;28;19958;-67
2023/05/26 09:40:55;;;;;;;;;;;12.40;97.00;;;;;;5074329;28;19919;-65
2023/05/26 09:43:23;;;;;;;;;;;12.30;97.00;;;;;;5093876;28;19927;-66
2023/05/26 09:45:49;;;;;;;;;;;12.30;97.30;;;;;;5091891;28;19912;-68
2023/05/26 09:48:16;;;;;;;;;;;12.30;97.40;;;;;;5091771;28;20015;-67
2023/05/26 09:50:43;;;;;;;;;;;12.20;97.30;;;;;;5091115;28;19912;-66
2023/05/26 09:53:11;;;;;;;;;;;12.20;97.20;;;;;;5108890;28;20018;-67
2023/05/26 09:55:42;;;;;;;;;;;12.20;97.40;;;;;;5110364;28;19940;-67
2023/05/26 09:58:10;;;;;;;;;;;12.10;97.40;;;;;;5108770;28;19951;-67
2023/05/26 10:00:39;;;;;;;;;;;12.10;97.50;;;;;;5110578;28;19915;-66
2023/05/26 10:03:07;;;;;;;;;;;12.10;98.00;;;;;;5109560;28;19919;-64
2023/05/26 10:05:34;;;;;;;;;;;12.00;97.60;;;;;;5111087;28;19914;-66
2023/05/26 10:08:01;;;;;;;;;;;12.00;97.60;;;;;;5112548;28;19912;-63
2023/05/26 10:10:31;;;;;;;;;;;11.90;97.80;;;;;;5112267;28;19915;-64
2023/05/26 10:12:58;;;;;;;;;;;11.90;98.00;;;;;;5111057;28;19986;-67
2023/05/26 10:15:25;;;;;;;;;;;11.90;97.90;;;;;;5110784;28;20356;-64
2023/05/26 10:17:52;;;;;;;;;;;11.90;98.30;;;;;;5112866;28;20334;-64
2023/05/26 10:20:19;;;;;;;;;;;11.80;98.30;;;;;;5113575;28;19999;-68
2023/05/26 10:22:51;;;;;;;;;;;11.80;98.60;;;;;;5115480;27;19915;-68
2023/05/26 10:25:34;;;;;;;;;;;11.70;98.60;;;;;;5129530;27;19943;-66
2023/05/26 10:28:00;;;;;;;;;;;11.70;98.40;;;;;;5103784;27;20047;-66
2023/05/26 10:30:27;;;;;;;;;;;11.60;98.70;;;;;;5136132;27;19915;-68
2023/05/26 10:32:55;;;;;;;;;;;11.60;98.90;;;;;;5102824;27;19959;-68
2023/05/26 10:35:29;;;;;;;;;;;11.60;99.10;;;;;;5110879;28;19957;-68
2023/05/26 10:37:56;;;;;;;;;;;11.50;99.20;;;;;;5101190;27;20450;-65
2023/05/26 10:40:43;;;;;;;;;;;11.50;99.20;;;;;;5115263;28;19914;-67
2023/05/26 10:43:26;;;;;;;;;;;11.50;99.20;;;;;;5104417;28;20019;-65
2023/05/26 10:45:55;;;;;;;;;;;11.50;99.50;;;;;;5095208;28;20003;-66
2023/05/26 10:48:24;;;;;;;;;;;11.40;99.80;;;;;;5095757;28;19956;-65
2023/05/26 10:50:54;;;;;;;;;;;11.40;99.40;;;;;;5095251;28;19912;-67
2023/05/26 10:53:21;;;;;;;;;;;11.40;99.70;;;;;;5095402;28;19908;-68
2023/05/26 10:55:54;;;;;;;;;;;11.20;99.70;;;;;;5122878;27;19918;-66
2023/05/26 10:58:31;;;;;;;;;;;11.20;99.70;;;;;;5095093;28;19934;-68
2023/05/26 11:01:06;;;;;;;;;;;11.20;99.60;;;;;;5095673;28;19993;-68
2023/05/26 11:03:43;;;;;;;;;;;11.20;99.60;;;;;;5095322;28;19956;-68
2023/05/26 11:06:10;;;;;;;;;;;11.10;99.60;;;;;;5095144;28;19908;-69
2023/05/26 11:08:38;;;;;;;;;;;11.10;99.60;;;;;;5095645;28;20317;-69
2023/05/26 11:11:06;;;;;;;;;;;11.10;99.50;;;;;;5095439;28;19915;-69
2023/05/26 11:13:46;;;;;;;;;;;11.10;99.40;;;;;;5095005;28;19912;-66
2023/05/26 11:16:13;;;;;;;;;;;11.10;99.80;;;;;;5094956;28;19915;-64
2023/05/26 11:18:40;;;;;;;;;;;11.00;99.70;;;;;;5099695;28;19939;-66
2023/05/26 11:21:07;;;;;;;;;;;11.10;99.80;;;;;;5112107;28;20281;-65
2023/05/26 11:23:33;;;;;;;;;;;11.00;99.90;;;;;;5110353;28;19911;-68
2023/05/26 11:26:00;;;;;;;;;;;11.00;99.90;;;;;;5112468;28;19912;-65
2023/05/26 11:28:27;;;;;;;;;;;11.00;99.70;;;;;;5108380;28;19923;-66
2023/05/26 11:30:53;;;;;;;;;;;11.00;99.90;;;;;;5113517;27;19943;-66
2023/05/26 11:33:20;;;;;;;;;;;11.00;99.90;;;;;;5108005;27;20002;-67
2023/05/26 11:35:46;;;;;;;;;;;10.90;99.90;;;;;;5093957;28;19916;-67
2023/05/26 11:38:13;;;;;;;;;;;10.90;99.90;;;;;;5112672;28;19943;-67
2023/05/26 11:40:41;;;;;;;;;;;10.90;99.90;;;;;;5114120;28;19919;-64
2023/05/26 11:43:08;;;;;;;;;;;10.80;99.90;;;;;;5114707;28;19923;-66
2023/05/26 11:45:35;;;;;;;;;;;10.80;99.90;;;;;;5114643;28;19918;-65
2023/05/26 11:48:01;;;;;;;;;;;10.80;99.90;;;;;;5097501;28;19920;-65
2023/05/26 11:50:28;;;;;;;;;;;10.90;99.90;;;;;;5114180;28;19912;-68
2023/05/26 11:52:54;;;;;;;;;;;10.80;99.90;;;;;;5113671;28;19939;-66
2023/05/26 11:55:22;;;;;;;;;;;10.80;99.90;;;;;;5114312;28;19908;-68
2023/05/26 11:57:51;;;;;;;;;;;10.80;99.90;;;;;;5097439;28;19915;-69
2023/05/26 12:00:19;;;;;;;;;;;10.80;99.90;;;;;;5114221;28;20360;-66
2023/05/26 12:02:46;;;;;;;;;;;10.70;99.90;;;;;;5105881;28;19912;-65
2023/05/26 12:05:16;;;;;;;;;;;10.70;99.90;;;;;;5093902;28;19916;-67
2023/05/26 12:07:43;;;;;;;;;;;10.70;99.90;;;;;;5093551;28;20271;-66
2023/05/26 12:10:10;;;;;;;;;;;10.60;99.90;;;;;;5103829;28;19912;-67
2023/05/26 12:12:47;;;;;;;;;;;10.70;99.90;;;;;;5094091;28;19955;-65
2023/05/26 12:15:18;;;;;;;;;;;10.70;99.90;;;;;;5111136;28;19998;-65
2023/05/26 12:17:44;;;;;;;;;;;10.70;99.90;;;;;;5113559;28;20325;-65
2023/05/26 12:20:14;;;;;;;;;;;10.60;99.90;;;;;;5114467;28;19908;-66
2023/05/26 12:22:41;;;;;;;;;;;10.60;99.90;;;;;;5110870;28;19954;-64
2023/05/26 12:25:08;;;;;;;;;;;10.60;99.90;;;;;;5102746;28;20370;-65
2023/05/26 12:27:36;;;;;;;;;;;10.60;99.90;;;;;;5108122;28;20384;-68
2023/05/26 12:30:18;;;;;;;;;;;10.50;99.90;;;;;;5113452;28;19916;-66
2023/05/26 12:32:46;;;;;;;;;;;10.50;99.90;;;;;;5123490;27;19957;-64
2023/05/26 12:35:15;;;;;;;;;;;10.50;99.90;;;;;;5094541;28;19914;-65
2023/05/26 12:37:42;;;;;;;;;;;10.50;99.90;;;;;;5093316;28;19908;-67
2023/05/26 12:40:09;;;;;;;;;;;10.40;99.90;;;;;;5092792;28;19951;-64
2023/05/26 12:42:36;;;;;;;;;;;10.40;99.90;;;;;;5096436;28;19942;-66
2023/05/26 12:45:03;;;;;;;;;;;10.40;99.90;;;;;;5105166;28;20674;-66
2023/05/26 12:47:30;;;;;;;;;;;10.30;99.90;;;;;;5093028;28;19908;-67
2023/05/26 12:49:57;;;;;;;;;;;10.20;99.90;;;;;;5104768;28;19915;-68
2023/05/26 12:52:24;;;;;;;;;;;10.30;99.90;;;;;;5112768;28;19923;-65
2023/05/26 12:54:50;;;;;;;;;;;10.30;99.90;;;;;;5112984;28;20002;-66
2023/05/26 12:57:18;;;;;;;;;;;10.20;99.90;;;;;;5113508;28;19908;-64
2023/05/26 12:59:45;;;;;;;;;;;10.20;99.90;;;;;;5113143;28;19915;-64
2023/05/26 13:02:12;;;;;;;;;;;10.10;99.90;;;;;;5111443;28;20373;-68
2023/05/26 13:04:38;;;;;;;;;;;10.00;99.90;;;;;;5113220;28;19958;-66
2023/05/26 13:07:07;;;;;;;;;;;10.00;99.90;;;;;;5113689;28;20047;-66
2023/05/26 13:09:34;;;;;;;;;;;10.00;99.90;;;;;;5107909;28;19923;-66
2023/05/26 13:12:01;;;;;;;;;;;10.00;99.90;;;;;;5113370;28;19919;-68
2023/05/26 13:14:28;;;;;;;;;;;9.90;99.90;;;;;;5113114;28;19908;-66
2023/05/26 13:16:54;;;;;;;;;;;9.90;99.90;;;;;;5100768;28;19960;-65
2023/05/26 13:19:22;;;;;;;;;;;9.90;99.90;;;;;;5099371;28;19955;-64
2023/05/26 13:21:48;;;;;;;;;;;9.90;99.90;;;;;;5090979;28;19958;-65
2023/05/26 13:24:15;;;;;;;;;;;9.90;99.90;;;;;;5092413;28;19908;-63
2023/05/26 13:26:43;;;;;;;;;;;9.80;99.90;;;;;;5093020;28;19912;-65
2023/05/26 13:29:10;;;;;;;;;;;9.80;99.90;;;;;;5092697;28;19922;-64
2023/05/26 13:31:37;;;;;;;;;;;9.90;99.90;;;;;;5093019;28;19935;-65
2023/05/26 13:34:04;;;;;;;;;;;9.90;99.90;;;;;;5092531;28;19951;-67
2023/05/26 13:36:30;;;;;;;;;;;9.90;99.90;;;;;;5091874;28;19908;-67
2023/05/26 13:38:57;;;;;;;;;;;9.90;99.90;;;;;;5092468;28;19926;-68
2023/05/26 13:41:23;;;;;;;;;;;9.90;99.90;;;;;;5074360;28;19928;-65
2023/05/26 13:43:50;;;;;;;;;;;9.90;99.90;;;;;;5092563;28;19912;-67
2023/05/26 13:46:17;;;;;;;;;;;9.80;99.90;;;;;;5092599;28;19912;-66
2023/05/26 13:48:44;;;;;;;;;;;9.80;99.90;;;;;;5093785;28;19920;-66
2023/05/26 13:51:11;;;;;;;;;;;9.80;99.90;;;;;;5092709;28;19986;-67
2023/05/26 13:53:37;;;;;;;;;;;9.80;99.90;;;;;;5091860;28;19915;-68
2023/05/26 13:56:05;;;;;;;;;;;9.80;99.90;;;;;;5092426;28;20375;-63
2023/05/26 13:58:31;;;;;;;;;;;9.80;99.90;;;;;;5093340;28;20357;-66
2023/05/26 14:00:58;;;;;;;;;;;9.80;99.90;;;;;;5104614;28;19973;-66
2023/05/26 14:03:24;;;;;;;;;;;9.80;99.90;;;;;;5101910;28;19973;-67
2023/05/26 14:05:51;;;;;;;;;;;9.80;99.90;;;;;;5094167;28;19993;-68
2023/05/26 14:08:18;;;;;;;;;;;9.70;99.90;;;;;;5110964;28;19942;-67
2023/05/26 14:10:45;;;;;;;;;;;9.80;99.90;;;;;;5113374;28;19908;-67
2023/05/26 14:13:12;;;;;;;;;;;9.80;99.90;;;;;;5112886;28;19915;-67
2023/05/26 14:15:38;;;;;;;;;;;9.70;99.90;;;;;;5112606;28;19969;-66
2023/05/26 14:18:05;;;;;;;;;;;9.70;99.90;;;;;;5102389;28;20394;-67
2023/05/26 14:20:32;;;;;;;;;;;9.70;99.90;;;;;;5092582;28;20284;-68